WetterOnline ( https://www.wetteronline.at )

Wetter aktuell Kassel

Aktuelles Wetter: Schauenburg-Elgershausen (317m)

6-stündlich | Neueste Meldungen
Ortszeit Temperatur Wetter
Fr, 14.06. 8:00 12.7° C leichter Regen
Fr, 14.06. 2:00 9.3° C wolkig
Do, 13.06. 20:00 15.5° C bedeckt
Do, 13.06. 14:00 14.5° C bewölkt
Do, 13.06. 8:00 9.2° C bedeckt
Do, 13.06. 2:00 8.8° C bedeckt
Mi, 12.06. 20:00 11.9° C bedeckt
Mi, 12.06. 14:00 12.7° C bewölkt
Ortszeit Temperatur Wetter
Fr, 14.06. 11:30 15.6° C bedeckt
Fr, 14.06. 11:20 15.6° C bedeckt
Fr, 14.06. 11:10 15.0° C bedeckt
Fr, 14.06. 11:00 14.9° C bedeckt
Fr, 14.06. 10:50 14.9° C bedeckt
Fr, 14.06. 10:40 14.9° C bedeckt
Fr, 14.06. 10:30 14.5° C bedeckt
Fr, 14.06. 10:00 13.7° C leichter Regen
Fr, 14.06. 9:30 12.9° C bedeckt
Fr, 14.06. 9:00 13.0° C bedeckt
Fr, 14.06. 8:30 12.4° C bedeckt
Ortszeit Relative Feuchte Sichtweite
Fr, 14.06. 8:00 68% 30 km
Fr, 14.06. 2:00 81% 55 km
Do, 13.06. 20:00 50% 50 km
Do, 13.06. 14:00 51% >70 km
Do, 13.06. 8:00 75% 45 km
Do, 13.06. 2:00 84% 55 km
Mi, 12.06. 20:00 73% 45 km
Mi, 12.06. 14:00 62% >70 km
Ortszeit Relative Feuchte Sichtweite
Fr, 14.06. 11:30 64% 50 km
Fr, 14.06. 11:20 64% -
Fr, 14.06. 11:10 63% -
Fr, 14.06. 11:00 63% 50 km
Fr, 14.06. 10:50 63% -
Fr, 14.06. 10:40 61% -
Fr, 14.06. 10:30 63% 45 km
Fr, 14.06. 10:00 65% 60 km
Fr, 14.06. 9:30 66% 50 km
Fr, 14.06. 9:00 69% 65 km
Fr, 14.06. 8:30 68% 55 km
Ortszeit Niederschlagsmenge Niederschlagsart
Fr, 14.06. 8:00 0.1 l/m2 in 12 Std. Regen
Fr, 14.06. 2:00 0.0 l/m2 in 6 Std. -
Do, 13.06. 20:00 0.0 l/m2 in 12 Std. -
Do, 13.06. 14:00 0.0 l/m2 in 6 Std. -
Do, 13.06. 8:00 0.0 l/m2 in 12 Std. -
Do, 13.06. 2:00 0.0 l/m2 in 6 Std. -
Mi, 12.06. 20:00 0.2 l/m2 in 12 Std. Regen
Mi, 12.06. 14:00 0.2 l/m2 in 6 Std. Regen
Ortszeit Niederschlagsmenge Niederschlagsart
Fr, 14.06. 11:30 0.0 l/m2 in 30 Min -
Fr, 14.06. 11:20 keine Meldung -
Fr, 14.06. 11:10 keine Meldung -
Fr, 14.06. 11:00 <0.05 l/m2 in 1 Std. Regen
Fr, 14.06. 10:50 keine Meldung -
Fr, 14.06. 10:40 keine Meldung -
Fr, 14.06. 10:30 <0.05 l/m2 in 30 Min Schneeregen
Fr, 14.06. 10:00 <0.05 l/m2 in 1 Std. Regen
Fr, 14.06. 9:30 <0.05 l/m2 in 30 Min Schneeregen
Fr, 14.06. 9:00 <0.05 l/m2 in 1 Std. Regen
Fr, 14.06. 8:30 <0.05 l/m2 in 30 Min Schneeregen
Ortszeit Stärke Spitze Richtung
km/h Bft. km/h Grad Sektor
Fr, 14.06. 8:00 4 1 11 50° NO
Fr, 14.06. 2:00 4 1 14 30° NO
Do, 13.06. 20:00 7 2 22 190° S
Do, 13.06. 14:00 6 1 22 200° S
Do, 13.06. 8:00 7 2 18 300° NW
Do, 13.06. 2:00 6 1 11 310° NW
Mi, 12.06. 20:00 4 1 32 230° SW
Mi, 12.06. 14:00 11 2 25 280° W
Ortszeit Stärke Spitze Richtung
km/h Bft. km/h Grad Sektor
Fr, 14.06. 11:30 14 3 25 170° S
Fr, 14.06. 11:20 14 3 - 170° S
Fr, 14.06. 11:10 13 3 - 170° S
Fr, 14.06. 11:00 17 3 33 180° S
Fr, 14.06. 10:50 17 3 - 180° S
Fr, 14.06. 10:40 18 3 - 170° S
Fr, 14.06. 10:30 11 2 18 130° SO
Fr, 14.06. 10:00 7 2 13 120° SO
Fr, 14.06. 9:30 7 2 7 60° NO
Fr, 14.06. 9:00 7 2 11 260° W
Fr, 14.06. 8:30 4 1 11 120° SO
Ortszeit Untergrenze Bedeckung Gattung
total tief tief mittel hoch
Fr, 14.06. 8:00 1410 m 8/8 8/8 - - -
Fr, 14.06. 2:00 2100 m 8/8 1/8 - - -
Do, 13.06. 20:00 1800 m 8/8 8/8 - - -
Do, 13.06. 14:00 1320 m 7/8 7/8 - - -
Do, 13.06. 8:00 2100 m 8/8 8/8 - - -
Do, 13.06. 2:00 2100 m 8/8 8/8 - - -
Mi, 12.06. 20:00 960 m 8/8 8/8 - - -
Mi, 12.06. 14:00 1200 m 7/8 7/8 - - -
Ortszeit Bedeckungsgrad in Achtel und Wolkenuntergrenze
Fr, 14.06. 11:30 8(2100m)
Fr, 14.06. 11:20 8(2100m)
Fr, 14.06. 11:10 8
Fr, 14.06. 11:00 8(2400m)
Fr, 14.06. 10:50 8(2400m)
Fr, 14.06. 10:40 8
Fr, 14.06. 10:30 1(1500m) 8(2700m)
Fr, 14.06. 10:00 6(1500m) 7(2100m) 8(7200m)
Fr, 14.06. 9:30 8(1800m)
Fr, 14.06. 9:00 7(1800m) 8(2400m)
Fr, 14.06. 8:30 1(690m) 8(2400m) 8(3300m)
Ortszeit Luftdruck NN (hPa) Tendenz (hPa in 3 Std.)
Fr, 14.06. 8:00 1011 - 1,2
Fr, 14.06. 2:00 1015 - 1,2
Do, 13.06. 20:00 1016 - 0,8
Do, 13.06. 14:00 1018 - 0,8
Do, 13.06. 8:00 1020 + 0,8
Do, 13.06. 2:00 1020 + 0,2
Mi, 12.06. 20:00 1018 - 0,1
Mi, 12.06. 14:00 1019 - 0,1
Ortszeit Luftdruck NN (hPa) Tendenz (hPa in 3 Std.)
Fr, 14.06. 11:30 1011 - 0,3
Fr, 14.06. 11:20 1011 keine Meldung
Fr, 14.06. 11:10 1011 keine Meldung
Fr, 14.06. 11:00 1011 0,0
Fr, 14.06. 10:50 1011 keine Meldung
Fr, 14.06. 10:40 1011 keine Meldung
Fr, 14.06. 10:30 1011 - 0,2
Fr, 14.06. 10:00 1011 - 0,3
Fr, 14.06. 9:30 1011 - 0,6
Fr, 14.06. 9:00 1011 - 0,8
Fr, 14.06. 8:30 1011 - 1,0
Ortszeit Schneehöhe (cm)
Fr, 14.06. 8:00 0
Fr, 14.06. 2:00 0
Do, 13.06. 20:00 0
Do, 13.06. 14:00 0
Do, 13.06. 8:00 0
Do, 13.06. 2:00 0
Mi, 12.06. 20:00 0
Mi, 12.06. 14:00 0
Ortszeit Schneehöhe (cm)
Fr, 14.06. 11:30 0
Fr, 14.06. 11:20 0
Fr, 14.06. 11:10 -
Fr, 14.06. 11:00 0
Fr, 14.06. 10:50 0
Fr, 14.06. 10:40 -
Fr, 14.06. 10:30 0
Fr, 14.06. 10:00 0
Fr, 14.06. 9:30 0
Fr, 14.06. 9:00 0
Fr, 14.06. 8:30 0
Link zu dieser Seite / Seite empfehlen

Das Wetter in ...